sensor_id;sensor_type;location;lat;lon;timestamp;temperature;humidity
38456;DHT22;24237;50.106;20.014;2023-02-18T00:01:27;12.70;99.90
38456;DHT22;24237;50.106;20.014;2023-02-18T00:03:54;12.60;99.90
38456;DHT22;24237;50.106;20.014;2023-02-18T00:06:29;12.70;99.90
38456;DHT22;24237;50.106;20.014;2023-02-18T00:08:56;12.60;99.90
38456;DHT22;24237;50.106;20.014;2023-02-18T00:11:24;12.60;99.90
38456;DHT22;24237;50.106;20.014;2023-02-18T00:13:52;12.40;99.90
38456;DHT22;24237;50.106;20.014;2023-02-18T00:16:17;12.40;99.90
38456;DHT22;24237;50.106;20.014;2023-02-18T00:18:43;12.50;99.90
38456;DHT22;24237;50.106;20.014;2023-02-18T00:21:10;12.40;99.90
38456;DHT22;24237;50.106;20.014;2023-02-18T00:23:36;12.60;99.90
38456;DHT22;24237;50.106;20.014;2023-02-18T00:26:07;12.60;99.90
38456;DHT22;24237;50.106;20.014;2023-02-18T00:28:33;12.60;99.90
38456;DHT22;24237;50.106;20.014;2023-02-18T00:31:08;12.60;99.90
38456;DHT22;24237;50.106;20.014;2023-02-18T00:33:34;12.60;99.90
38456;DHT22;24237;50.106;20.014;2023-02-18T00:36:04;12.50;99.90
38456;DHT22;24237;50.106;20.014;2023-02-18T00:38:32;12.60;99.90
38456;DHT22;24237;50.106;20.014;2023-02-18T00:40:58;12.50;99.90
38456;DHT22;24237;50.106;20.014;2023-02-18T00:43:24;12.70;99.90
38456;DHT22;24237;50.106;20.014;2023-02-18T00:45:50;12.60;99.90
38456;DHT22;24237;50.106;20.014;2023-02-18T00:48:16;12.50;99.90
38456;DHT22;24237;50.106;20.014;2023-02-18T00:50:42;12.60;99.90
38456;DHT22;24237;50.106;20.014;2023-02-18T00:53:08;12.60;99.90
38456;DHT22;24237;50.106;20.014;2023-02-18T00:55:42;12.70;99.90
38456;DHT22;24237;50.106;20.014;2023-02-18T00:58:08;12.50;99.90
38456;DHT22;24237;50.106;20.014;2023-02-18T01:00:34;12.50;99.90
38456;DHT22;24237;50.106;20.014;2023-02-18T01:03:00;12.50;99.90
38456;DHT22;24237;50.106;20.014;2023-02-18T01:05:26;12.40;99.90
38456;DHT22;24237;50.106;20.014;2023-02-18T01:07:51;12.30;99.90
38456;DHT22;24237;50.106;20.014;2023-02-18T01:10:17;12.30;99.90
38456;DHT22;24237;50.106;20.014;2023-02-18T01:12:42;12.10;99.90
38456;DHT22;24237;50.106;20.014;2023-02-18T01:15:09;12.10;99.90
38456;DHT22;24237;50.106;20.014;2023-02-18T01:17:35;11.60;99.90
38456;DHT22;24237;50.106;20.014;2023-02-18T01:20:01;10.30;99.90
38456;DHT22;24237;50.106;20.014;2023-02-18T01:22:27;9.60;99.90
38456;DHT22;24237;50.106;20.014;2023-02-18T01:24:53;9.70;99.90
38456;DHT22;24237;50.106;20.014;2023-02-18T01:27:18;9.80;99.90
38456;DHT22;24237;50.106;20.014;2023-02-18T01:29:44;10.10;99.90
38456;DHT22;24237;50.106;20.014;2023-02-18T01:32:10;10.30;99.90
38456;DHT22;24237;50.106;20.014;2023-02-18T01:34:35;10.50;99.90
38456;DHT22;24237;50.106;20.014;2023-02-18T01:37:01;10.50;99.90
38456;DHT22;24237;50.106;20.014;2023-02-18T01:39:26;10.40;99.90
38456;DHT22;24237;50.106;20.014;2023-02-18T01:41:52;10.50;99.90
38456;DHT22;24237;50.106;20.014;2023-02-18T01:44:21;10.40;99.90
38456;DHT22;24237;50.106;20.014;2023-02-18T01:46:47;10.60;99.90
38456;DHT22;24237;50.106;20.014;2023-02-18T01:49:22;10.70;99.90
38456;DHT22;24237;50.106;20.014;2023-02-18T01:51:58;10.70;99.90
38456;DHT22;24237;50.106;20.014;2023-02-18T01:57:03;10.60;99.90
38456;DHT22;24237;50.106;20.014;2023-02-18T01:59:40;10.50;99.90
38456;DHT22;24237;50.106;20.014;2023-02-18T02:02:10;10.40;99.90
38456;DHT22;24237;50.106;20.014;2023-02-18T02:04:37;10.50;99.90
38456;DHT22;24237;50.106;20.014;2023-02-18T02:07:02;10.70;99.90
38456;DHT22;24237;50.106;20.014;2023-02-18T02:09:30;10.70;99.90
38456;DHT22;24237;50.106;20.014;2023-02-18T02:37:28;10.50;99.90
38456;DHT22;24237;50.106;20.014;2023-02-18T02:40:06;10.70;99.90
38456;DHT22;24237;50.106;20.014;2023-02-18T02:48:04;10.60;99.90
38456;DHT22;24237;50.106;20.014;2023-02-18T02:51:00;10.60;99.90
38456;DHT22;24237;50.106;20.014;2023-02-18T02:53:30;10.70;99.90
38456;DHT22;24237;50.106;20.014;2023-02-18T02:55:58;10.70;99.90
38456;DHT22;24237;50.106;20.014;2023-02-18T02:58:23;10.70;99.90
38456;DHT22;24237;50.106;20.014;2023-02-18T03:15:07;10.80;99.90
38456;DHT22;24237;50.106;20.014;2023-02-18T03:17:59;10.60;99.90
38456;DHT22;24237;50.106;20.014;2023-02-18T03:20:30;10.50;99.90
38456;DHT22;24237;50.106;20.014;2023-02-18T03:22:59;10.60;99.60
38456;DHT22;24237;50.106;20.014;2023-02-18T03:25:25;10.50;99.80
38456;DHT22;24237;50.106;20.014;2023-02-18T03:27:55;10.60;99.60
38456;DHT22;24237;50.106;20.014;2023-02-18T03:30:26;10.60;99.30
38456;DHT22;24237;50.106;20.014;2023-02-18T03:32:57;10.70;99.10
38456;DHT22;24237;50.106;20.014;2023-02-18T03:35:25;10.70;99.40
38456;DHT22;24237;50.106;20.014;2023-02-18T03:38:18;10.70;99.50
38456;DHT22;24237;50.106;20.014;2023-02-18T03:40:45;10.90;99.40
38456;DHT22;24237;50.106;20.014;2023-02-18T03:43:11;10.90;99.50
38456;DHT22;24237;50.106;20.014;2023-02-18T03:45:37;10.70;99.90
38456;DHT22;24237;50.106;20.014;2023-02-18T03:48:02;10.90;99.90
38456;DHT22;24237;50.106;20.014;2023-02-18T03:50:28;11.00;99.90
38456;DHT22;24237;50.106;20.014;2023-02-18T03:52:53;11.20;99.90
38456;DHT22;24237;50.106;20.014;2023-02-18T03:55:19;11.10;99.90
38456;DHT22;24237;50.106;20.014;2023-02-18T03:57:44;11.10;99.90
38456;DHT22;24237;50.106;20.014;2023-02-18T04:00:10;11.10;99.90
38456;DHT22;24237;50.106;20.014;2023-02-18T04:02:36;11.30;99.90
38456;DHT22;24237;50.106;20.014;2023-02-18T04:05:02;11.10;99.90
38456;DHT22;24237;50.106;20.014;2023-02-18T04:07:28;11.20;99.90
38456;DHT22;24237;50.106;20.014;2023-02-18T04:09:53;11.30;99.90
38456;DHT22;24237;50.106;20.014;2023-02-18T04:12:19;11.00;99.90
38456;DHT22;24237;50.106;20.014;2023-02-18T04:14:44;11.00;99.90
38456;DHT22;24237;50.106;20.014;2023-02-18T04:17:10;10.90;99.90
38456;DHT22;24237;50.106;20.014;2023-02-18T04:19:35;10.70;99.90
38456;DHT22;24237;50.106;20.014;2023-02-18T04:22:02;10.70;99.90
38456;DHT22;24237;50.106;20.014;2023-02-18T04:24:27;10.80;99.90
38456;DHT22;24237;50.106;20.014;2023-02-18T04:26:53;10.70;99.90
38456;DHT22;24237;50.106;20.014;2023-02-18T04:29:19;10.70;99.90
38456;DHT22;24237;50.106;20.014;2023-02-18T04:31:44;10.60;99.90
38456;DHT22;24237;50.106;20.014;2023-02-18T04:34:10;10.60;99.90
38456;DHT22;24237;50.106;20.014;2023-02-18T04:36:35;10.60;99.90
38456;DHT22;24237;50.106;20.014;2023-02-18T04:39:01;10.60;99.90
38456;DHT22;24237;50.106;20.014;2023-02-18T04:41:27;10.70;99.90
38456;DHT22;24237;50.106;20.014;2023-02-18T04:43:53;10.80;99.90
38456;DHT22;24237;50.106;20.014;2023-02-18T04:46:18;10.90;99.90
38456;DHT22;24237;50.106;20.014;2023-02-18T04:48:44;11.00;99.90
38456;DHT22;24237;50.106;20.014;2023-02-18T04:51:09;10.70;99.90
38456;DHT22;24237;50.106;20.014;2023-02-18T04:53:35;10.90;99.90
38456;DHT22;24237;50.106;20.014;2023-02-18T04:56:00;10.70;99.90
38456;DHT22;24237;50.106;20.014;2023-02-18T04:58:26;10.60;99.90
38456;DHT22;24237;50.106;20.014;2023-02-18T05:00:52;10.50;99.90
38456;DHT22;24237;50.106;20.014;2023-02-18T05:03:18;10.40;99.90
38456;DHT22;24237;50.106;20.014;2023-02-18T05:05:44;10.50;99.90
38456;DHT22;24237;50.106;20.014;2023-02-18T05:08:10;10.60;99.90
38456;DHT22;24237;50.106;20.014;2023-02-18T05:10:37;10.70;99.90
38456;DHT22;24237;50.106;20.014;2023-02-18T05:13:02;10.90;99.90
38456;DHT22;24237;50.106;20.014;2023-02-18T05:15:28;10.70;99.90
38456;DHT22;24237;50.106;20.014;2023-02-18T05:17:54;10.60;99.90
38456;DHT22;24237;50.106;20.014;2023-02-18T05:20:19;10.60;99.90
38456;DHT22;24237;50.106;20.014;2023-02-18T05:22:45;10.30;99.90
38456;DHT22;24237;50.106;20.014;2023-02-18T05:25:11;10.10;99.90
38456;DHT22;24237;50.106;20.014;2023-02-18T05:27:36;10.10;99.90
38456;DHT22;24237;50.106;20.014;2023-02-18T05:30:03;10.30;99.00
38456;DHT22;24237;50.106;20.014;2023-02-18T05:32:28;10.00;98.70
38456;DHT22;24237;50.106;20.014;2023-02-18T05:34:54;10.00;98.60
38456;DHT22;24237;50.106;20.014;2023-02-18T05:37:20;10.10;97.60
38456;DHT22;24237;50.106;20.014;2023-02-18T05:39:45;10.10;97.40
38456;DHT22;24237;50.106;20.014;2023-02-18T05:42:11;10.20;96.20
38456;DHT22;24237;50.106;20.014;2023-02-18T05:44:36;10.00;96.10
38456;DHT22;24237;50.106;20.014;2023-02-18T05:47:05;10.10;95.80
38456;DHT22;24237;50.106;20.014;2023-02-18T05:49:32;9.90;95.60
38456;DHT22;24237;50.106;20.014;2023-02-18T05:51:58;10.00;95.60
38456;DHT22;24237;50.106;20.014;2023-02-18T05:54:24;10.00;95.80
38456;DHT22;24237;50.106;20.014;2023-02-18T05:56:50;9.90;95.80
38456;DHT22;24237;50.106;20.014;2023-02-18T05:59:15;10.00;95.70
38456;DHT22;24237;50.106;20.014;2023-02-18T06:01:41;10.00;95.90
38456;DHT22;24237;50.106;20.014;2023-02-18T06:04:07;10.00;96.20
38456;DHT22;24237;50.106;20.014;2023-02-18T06:06:33;10.00;96.10
38456;DHT22;24237;50.106;20.014;2023-02-18T06:08:59;10.10;96.30
38456;DHT22;24237;50.106;20.014;2023-02-18T06:11:24;10.10;96.50
38456;DHT22;24237;50.106;20.014;2023-02-18T06:13:50;9.90;95.70
38456;DHT22;24237;50.106;20.014;2023-02-18T06:16:15;9.90;95.70
38456;DHT22;24237;50.106;20.014;2023-02-18T06:18:41;9.90;95.60
38456;DHT22;24237;50.106;20.014;2023-02-18T06:21:07;10.00;95.60
38456;DHT22;24237;50.106;20.014;2023-02-18T06:23:32;10.00;95.50
38456;DHT22;24237;50.106;20.014;2023-02-18T06:25:58;10.00;95.70
38456;DHT22;24237;50.106;20.014;2023-02-18T06:28:23;10.20;95.40
38456;DHT22;24237;50.106;20.014;2023-02-18T06:30:49;10.20;94.80
38456;DHT22;24237;50.106;20.014;2023-02-18T06:33:15;10.10;94.60
38456;DHT22;24237;50.106;20.014;2023-02-18T06:35:41;10.10;94.80
38456;DHT22;24237;50.106;20.014;2023-02-18T06:38:07;10.20;94.50
38456;DHT22;24237;50.106;20.014;2023-02-18T06:40:33;10.30;94.30
38456;DHT22;24237;50.106;20.014;2023-02-18T06:42:58;10.40;94.40
38456;DHT22;24237;50.106;20.014;2023-02-18T06:45:24;10.60;94.10
38456;DHT22;24237;50.106;20.014;2023-02-18T06:47:50;10.60;93.30
38456;DHT22;24237;50.106;20.014;2023-02-18T06:50:15;10.40;93.30
38456;DHT22;24237;50.106;20.014;2023-02-18T06:52:41;10.50;93.40
38456;DHT22;24237;50.106;20.014;2023-02-18T06:55:07;10.30;93.40
38456;DHT22;24237;50.106;20.014;2023-02-18T06:57:36;10.30;92.90
38456;DHT22;24237;50.106;20.014;2023-02-18T07:00:03;10.20;92.00
38456;DHT22;24237;50.106;20.014;2023-02-18T07:02:29;10.20;92.00
38456;DHT22;24237;50.106;20.014;2023-02-18T07:04:55;10.30;92.00
38456;DHT22;24237;50.106;20.014;2023-02-18T07:07:21;10.20;92.20
38456;DHT22;24237;50.106;20.014;2023-02-18T07:09:47;10.60;91.60
38456;DHT22;24237;50.106;20.014;2023-02-18T07:12:12;10.40;91.40
38456;DHT22;24237;50.106;20.014;2023-02-18T07:14:38;10.50;91.60
38456;DHT22;24237;50.106;20.014;2023-02-18T07:17:04;10.50;91.70
38456;DHT22;24237;50.106;20.014;2023-02-18T07:19:29;10.60;91.10
38456;DHT22;24237;50.106;20.014;2023-02-18T07:21:55;10.60;91.50
38456;DHT22;24237;50.106;20.014;2023-02-18T07:24:22;10.80;91.20
38456;DHT22;24237;50.106;20.014;2023-02-18T07:26:47;11.00;90.90
38456;DHT22;24237;50.106;20.014;2023-02-18T07:29:13;10.90;90.70
38456;DHT22;24237;50.106;20.014;2023-02-18T07:31:39;10.70;90.60
38456;DHT22;24237;50.106;20.014;2023-02-18T07:34:04;10.50;91.10
38456;DHT22;24237;50.106;20.014;2023-02-18T07:36:30;10.70;90.10
38456;DHT22;24237;50.106;20.014;2023-02-18T07:38:56;10.60;89.40
38456;DHT22;24237;50.106;20.014;2023-02-18T07:41:22;10.50;90.10
38456;DHT22;24237;50.106;20.014;2023-02-18T07:43:48;10.50;90.20
38456;DHT22;24237;50.106;20.014;2023-02-18T07:46:14;10.50;90.20
38456;DHT22;24237;50.106;20.014;2023-02-18T07:48:40;10.60;89.70
38456;DHT22;24237;50.106;20.014;2023-02-18T07:51:10;10.50;90.00
38456;DHT22;24237;50.106;20.014;2023-02-18T07:53:37;10.70;90.30
38456;DHT22;24237;50.106;20.014;2023-02-18T07:56:03;10.60;90.00
38456;DHT22;24237;50.106;20.014;2023-02-18T07:58:31;10.60;90.00
38456;DHT22;24237;50.106;20.014;2023-02-18T08:00:58;10.70;89.70
38456;DHT22;24237;50.106;20.014;2023-02-18T08:03:26;10.70;89.90
38456;DHT22;24237;50.106;20.014;2023-02-18T08:05:53;10.50;90.10
38456;DHT22;24237;50.106;20.014;2023-02-18T08:08:21;10.60;89.80
38456;DHT22;24237;50.106;20.014;2023-02-18T08:10:48;10.80;89.70
38456;DHT22;24237;50.106;20.014;2023-02-18T08:13:14;10.70;89.60
38456;DHT22;24237;50.106;20.014;2023-02-18T08:15:41;10.70;88.40
38456;DHT22;24237;50.106;20.014;2023-02-18T08:18:09;10.70;89.50
38456;DHT22;24237;50.106;20.014;2023-02-18T08:20:38;10.70;89.50
38456;DHT22;24237;50.106;20.014;2023-02-18T08:23:05;10.60;89.50
38456;DHT22;24237;50.106;20.014;2023-02-18T08:25:31;10.60;89.00
38456;DHT22;24237;50.106;20.014;2023-02-18T08:27:57;10.80;88.50
38456;DHT22;24237;50.106;20.014;2023-02-18T08:30:23;10.70;89.40
38456;DHT22;24237;50.106;20.014;2023-02-18T08:32:49;10.70;89.40
38456;DHT22;24237;50.106;20.014;2023-02-18T08:35:15;10.70;89.10
38456;DHT22;24237;50.106;20.014;2023-02-18T08:37:41;10.70;89.30
38456;DHT22;24237;50.106;20.014;2023-02-18T08:40:07;10.90;89.00
38456;DHT22;24237;50.106;20.014;2023-02-18T08:42:32;10.80;88.20
38456;DHT22;24237;50.106;20.014;2023-02-18T08:44:58;10.70;89.00
38456;DHT22;24237;50.106;20.014;2023-02-18T08:47:24;10.90;87.90
38456;DHT22;24237;50.106;20.014;2023-02-18T08:49:51;10.90;86.90
38456;DHT22;24237;50.106;20.014;2023-02-18T08:52:17;10.70;87.40
38456;DHT22;24237;50.106;20.014;2023-02-18T08:54:42;10.70;88.20
38456;DHT22;24237;50.106;20.014;2023-02-18T08:57:28;10.90;87.80
38456;DHT22;24237;50.106;20.014;2023-02-18T08:59:56;10.70;86.40
38456;DHT22;24237;50.106;20.014;2023-02-18T09:02:22;11.00;86.80
38456;DHT22;24237;50.106;20.014;2023-02-18T09:04:47;11.00;87.20
38456;DHT22;24237;50.106;20.014;2023-02-18T09:07:13;10.90;87.10
38456;DHT22;24237;50.106;20.014;2023-02-18T09:09:39;10.80;87.70
38456;DHT22;24237;50.106;20.014;2023-02-18T09:12:05;11.10;88.10
38456;DHT22;24237;50.106;20.014;2023-02-18T09:14:30;11.50;87.20
38456;DHT22;24237;50.106;20.014;2023-02-18T09:16:57;11.20;86.60
38456;DHT22;24237;50.106;20.014;2023-02-18T09:19:23;11.10;86.00
38456;DHT22;24237;50.106;20.014;2023-02-18T09:21:49;11.00;87.70
38456;DHT22;24237;50.106;20.014;2023-02-18T09:24:18;11.20;88.10
38456;DHT22;24237;50.106;20.014;2023-02-18T09:26:43;11.40;87.30
38456;DHT22;24237;50.106;20.014;2023-02-18T09:29:12;11.40;85.80
38456;DHT22;24237;50.106;20.014;2023-02-18T09:31:38;11.30;87.00
38456;DHT22;24237;50.106;20.014;2023-02-18T09:34:04;11.20;87.70
38456;DHT22;24237;50.106;20.014;2023-02-18T09:36:30;11.20;88.30
38456;DHT22;24237;50.106;20.014;2023-02-18T09:38:56;11.30;87.00
38456;DHT22;24237;50.106;20.014;2023-02-18T09:41:49;11.10;88.40
38456;DHT22;24237;50.106;20.014;2023-02-18T09:46:58;11.30;88.40
38456;DHT22;24237;50.106;20.014;2023-02-18T09:49:29;11.20;87.90
38456;DHT22;24237;50.106;20.014;2023-02-18T09:52:10;11.00;89.00
38456;DHT22;24237;50.106;20.014;2023-02-18T09:54:37;11.20;89.30
38456;DHT22;24237;50.106;20.014;2023-02-18T09:57:03;11.10;89.80
38456;DHT22;24237;50.106;20.014;2023-02-18T09:59:30;11.50;89.30
38456;DHT22;24237;50.106;20.014;2023-02-18T10:01:56;11.20;89.50
38456;DHT22;24237;50.106;20.014;2023-02-18T10:04:30;11.10;90.20
38456;DHT22;24237;50.106;20.014;2023-02-18T10:07:00;11.20;89.80
38456;DHT22;24237;50.106;20.014;2023-02-18T10:09:32;11.10;90.00
38456;DHT22;24237;50.106;20.014;2023-02-18T10:12:13;11.50;89.90
38456;DHT22;24237;50.106;20.014;2023-02-18T10:14:39;11.30;90.20
38456;DHT22;24237;50.106;20.014;2023-02-18T10:17:06;11.40;90.20
38456;DHT22;24237;50.106;20.014;2023-02-18T10:19:37;11.40;90.50
38456;DHT22;24237;50.106;20.014;2023-02-18T10:22:07;11.70;90.70
38456;DHT22;24237;50.106;20.014;2023-02-18T10:24:36;11.90;90.40
38456;DHT22;24237;50.106;20.014;2023-02-18T10:27:05;11.60;91.10
38456;DHT22;24237;50.106;20.014;2023-02-18T10:29:31;11.70;91.80
38456;DHT22;24237;50.106;20.014;2023-02-18T10:32:05;11.80;91.60
38456;DHT22;24237;50.106;20.014;2023-02-18T10:34:42;11.70;91.90
38456;DHT22;24237;50.106;20.014;2023-02-18T10:37:25;11.70;92.00
38456;DHT22;24237;50.106;20.014;2023-02-18T10:42:26;11.20;92.50
38456;DHT22;24237;50.106;20.014;2023-02-18T10:50:44;11.30;91.30
38456;DHT22;24237;50.106;20.014;2023-02-18T10:53:15;11.00;92.10
38456;DHT22;24237;50.106;20.014;2023-02-18T10:55:45;11.20;92.30
38456;DHT22;24237;50.106;20.014;2023-02-18T10:58:30;11.50;92.70
38456;DHT22;24237;50.106;20.014;2023-02-18T11:00:57;11.50;92.80
38456;DHT22;24237;50.106;20.014;2023-02-18T11:03:25;11.60;93.00
38456;DHT22;24237;50.106;20.014;2023-02-18T11:05:56;11.60;93.10
38456;DHT22;24237;50.106;20.014;2023-02-18T11:08:25;11.20;94.00
38456;DHT22;24237;50.106;20.014;2023-02-18T11:10:53;11.10;94.90
38456;DHT22;24237;50.106;20.014;2023-02-18T11:13:29;11.00;95.80
38456;DHT22;24237;50.106;20.014;2023-02-18T11:16:05;10.90;96.60
38456;DHT22;24237;50.106;20.014;2023-02-18T11:18:43;10.70;96.90
38456;DHT22;24237;50.106;20.014;2023-02-18T11:21:31;10.80;97.20
38456;DHT22;24237;50.106;20.014;2023-02-18T11:24:07;10.70;97.40
38456;DHT22;24237;50.106;20.014;2023-02-18T11:26:35;10.90;97.60
38456;DHT22;24237;50.106;20.014;2023-02-18T11:29:02;10.80;98.00
38456;DHT22;24237;50.106;20.014;2023-02-18T11:31:41;10.70;99.00
38456;DHT22;24237;50.106;20.014;2023-02-18T11:34:17;10.30;99.90
38456;DHT22;24237;50.106;20.014;2023-02-18T11:36:45;10.40;99.90
38456;DHT22;24237;50.106;20.014;2023-02-18T11:39:17;10.20;99.90
38456;DHT22;24237;50.106;20.014;2023-02-18T11:41:54;10.30;99.90
38456;DHT22;24237;50.106;20.014;2023-02-18T11:44:33;10.50;99.90
38456;DHT22;24237;50.106;20.014;2023-02-18T11:47:05;10.60;99.90
38456;DHT22;24237;50.106;20.014;2023-02-18T11:49:33;10.70;99.90
38456;DHT22;24237;50.106;20.014;2023-02-18T11:52:29;10.70;99.90
38456;DHT22;24237;50.106;20.014;2023-02-18T11:57:53;10.50;99.90
38456;DHT22;24237;50.106;20.014;2023-02-18T12:00:41;10.60;99.90
38456;DHT22;24237;50.106;20.014;2023-02-18T12:05:58;10.60;99.90
38456;DHT22;24237;50.106;20.014;2023-02-18T12:08:27;10.30;99.90
38456;DHT22;24237;50.106;20.014;2023-02-18T12:11:06;10.30;99.90
38456;DHT22;24237;50.106;20.014;2023-02-18T12:13:56;10.10;99.90
38456;DHT22;24237;50.106;20.014;2023-02-18T12:32:47;10.20;99.90
38456;DHT22;24237;50.106;20.014;2023-02-18T12:35:49;10.10;99.90
38456;DHT22;24237;50.106;20.014;2023-02-18T12:41:13;10.30;99.90
38456;DHT22;24237;50.106;20.014;2023-02-18T12:44:23;10.20;99.90
38456;DHT22;24237;50.106;20.014;2023-02-18T12:58:02;9.70;99.90
38456;DHT22;24237;50.106;20.014;2023-02-18T13:06:30;9.80;99.90
38456;DHT22;24237;50.106;20.014;2023-02-18T13:09:16;10.00;99.90
38456;DHT22;24237;50.106;20.014;2023-02-18T13:15:38;10.00;99.90
38456;DHT22;24237;50.106;20.014;2023-02-18T13:18:39;9.80;99.90
38456;DHT22;24237;50.106;20.014;2023-02-18T13:21:16;9.70;99.90
38456;DHT22;24237;50.106;20.014;2023-02-18T13:23:55;9.90;99.90
38456;DHT22;24237;50.106;20.014;2023-02-18T13:26:23;10.00;99.90
38456;DHT22;24237;50.106;20.014;2023-02-18T13:29:14;10.30;99.90
38456;DHT22;24237;50.106;20.014;2023-02-18T13:34:44;10.10;99.90
38456;DHT22;24237;50.106;20.014;2023-02-18T13:39:56;10.20;99.90
38456;DHT22;24237;50.106;20.014;2023-02-18T13:42:43;10.20;99.90
38456;DHT22;24237;50.106;20.014;2023-02-18T13:45:24;10.20;99.90
38456;DHT22;24237;50.106;20.014;2023-02-18T13:47:51;10.10;99.90
38456;DHT22;24237;50.106;20.014;2023-02-18T13:50:32;10.30;99.90
38456;DHT22;24237;50.106;20.014;2023-02-18T13:55:40;10.20;99.90
38456;DHT22;24237;50.106;20.014;2023-02-18T13:58:22;10.50;99.90
38456;DHT22;24237;50.106;20.014;2023-02-18T14:01:00;10.40;99.90
38456;DHT22;24237;50.106;20.014;2023-02-18T14:03:33;10.70;99.90
38456;DHT22;24237;50.106;20.014;2023-02-18T14:06:01;10.70;99.90
38456;DHT22;24237;50.106;20.014;2023-02-18T14:08:35;10.60;99.90
38456;DHT22;24237;50.106;20.014;2023-02-18T14:14:12;10.30;99.90
38456;DHT22;24237;50.106;20.014;2023-02-18T14:19:40;10.00;99.90
38456;DHT22;24237;50.106;20.014;2023-02-18T14:27:44;9.80;99.90
38456;DHT22;24237;50.106;20.014;2023-02-18T14:30:30;9.60;99.90
38456;DHT22;24237;50.106;20.014;2023-02-18T14:33:02;9.70;99.90
38456;DHT22;24237;50.106;20.014;2023-02-18T14:35:41;9.50;99.90
38456;DHT22;24237;50.106;20.014;2023-02-18T14:41:07;9.40;99.90
38456;DHT22;24237;50.106;20.014;2023-02-18T14:46:49;9.40;99.90
38456;DHT22;24237;50.106;20.014;2023-02-18T14:51:56;9.40;99.90
38456;DHT22;24237;50.106;20.014;2023-02-18T14:54:24;9.50;99.90
38456;DHT22;24237;50.106;20.014;2023-02-18T14:56:59;9.40;99.90
38456;DHT22;24237;50.106;20.014;2023-02-18T14:59:28;9.60;99.90
38456;DHT22;24237;50.106;20.014;2023-02-18T15:02:01;9.40;99.90
38456;DHT22;24237;50.106;20.014;2023-02-18T15:04:27;9.40;99.90
38456;DHT22;24237;50.106;20.014;2023-02-18T15:07:02;9.40;99.90
38456;DHT22;24237;50.106;20.014;2023-02-18T15:09:28;9.40;99.90
38456;DHT22;24237;50.106;20.014;2023-02-18T15:12:05;9.60;99.90
38456;DHT22;24237;50.106;20.014;2023-02-18T15:14:37;9.30;99.90
38456;DHT22;24237;50.106;20.014;2023-02-18T15:17:17;9.30;99.90
38456;DHT22;24237;50.106;20.014;2023-02-18T15:19:52;9.30;99.90
38456;DHT22;24237;50.106;20.014;2023-02-18T15:22:23;9.30;99.90
38456;DHT22;24237;50.106;20.014;2023-02-18T15:24:52;9.30;99.90
38456;DHT22;24237;50.106;20.014;2023-02-18T15:27:27;9.00;99.90
38456;DHT22;24237;50.106;20.014;2023-02-18T15:30:23;9.10;99.90
38456;DHT22;24237;50.106;20.014;2023-02-18T15:32:51;9.10;99.90
38456;DHT22;24237;50.106;20.014;2023-02-18T15:35:20;9.10;99.90
38456;DHT22;24237;50.106;20.014;2023-02-18T15:37:52;9.20;99.90
38456;DHT22;24237;50.106;20.014;2023-02-18T15:40:19;9.20;99.90
38456;DHT22;24237;50.106;20.014;2023-02-18T15:42:49;9.20;99.90
38456;DHT22;24237;50.106;20.014;2023-02-18T15:45:30;9.00;99.90
38456;DHT22;24237;50.106;20.014;2023-02-18T15:47:58;9.10;99.90
38456;DHT22;24237;50.106;20.014;2023-02-18T15:50:33;9.20;99.90
38456;DHT22;24237;50.106;20.014;2023-02-18T15:53:08;9.20;99.90
38456;DHT22;24237;50.106;20.014;2023-02-18T15:55:49;9.20;99.90
38456;DHT22;24237;50.106;20.014;2023-02-18T15:58:34;9.20;99.90
38456;DHT22;24237;50.106;20.014;2023-02-18T16:01:22;9.10;99.90
38456;DHT22;24237;50.106;20.014;2023-02-18T16:03:49;9.10;99.90
38456;DHT22;24237;50.106;20.014;2023-02-18T16:06:29;9.10;99.90
38456;DHT22;24237;50.106;20.014;2023-02-18T16:09:02;9.20;99.90
38456;DHT22;24237;50.106;20.014;2023-02-18T16:11:40;9.30;99.90
38456;DHT22;24237;50.106;20.014;2023-02-18T16:14:28;9.40;99.90
38456;DHT22;24237;50.106;20.014;2023-02-18T16:17:22;9.50;99.90
38456;DHT22;24237;50.106;20.014;2023-02-18T16:22:35;9.20;99.90
38456;DHT22;24237;50.106;20.014;2023-02-18T16:25:15;9.40;99.90
38456;DHT22;24237;50.106;20.014;2023-02-18T16:30:25;9.20;99.90
38456;DHT22;24237;50.106;20.014;2023-02-18T16:32:51;9.10;99.90
38456;DHT22;24237;50.106;20.014;2023-02-18T16:35:21;9.20;99.90
38456;DHT22;24237;50.106;20.014;2023-02-18T16:37:47;9.10;99.90
38456;DHT22;24237;50.106;20.014;2023-02-18T16:42:51;9.30;99.90
38456;DHT22;24237;50.106;20.014;2023-02-18T16:45:18;9.30;99.90
38456;DHT22;24237;50.106;20.014;2023-02-18T16:47:46;9.40;99.90
38456;DHT22;24237;50.106;20.014;2023-02-18T16:50:18;9.30;99.90
38456;DHT22;24237;50.106;20.014;2023-02-18T16:52:50;9.20;99.90
38456;DHT22;24237;50.106;20.014;2023-02-18T16:55:25;9.50;99.90
38456;DHT22;24237;50.106;20.014;2023-02-18T16:57:51;9.20;99.90
38456;DHT22;24237;50.106;20.014;2023-02-18T17:00:18;9.20;99.90
38456;DHT22;24237;50.106;20.014;2023-02-18T17:02:47;9.10;99.90
38456;DHT22;24237;50.106;20.014;2023-02-18T17:05:22;9.30;99.90
38456;DHT22;24237;50.106;20.014;2023-02-18T17:07:48;9.10;99.90
38456;DHT22;24237;50.106;20.014;2023-02-18T17:10:14;9.20;99.90
38456;DHT22;24237;50.106;20.014;2023-02-18T17:12:40;9.30;99.90
38456;DHT22;24237;50.106;20.014;2023-02-18T17:15:34;9.30;99.90
38456;DHT22;24237;50.106;20.014;2023-02-18T17:18:00;9.50;99.90
38456;DHT22;24237;50.106;20.014;2023-02-18T17:20:27;9.40;99.90
38456;DHT22;24237;50.106;20.014;2023-02-18T17:22:59;9.40;99.90
38456;DHT22;24237;50.106;20.014;2023-02-18T17:25:37;9.40;99.90
38456;DHT22;24237;50.106;20.014;2023-02-18T17:28:04;9.60;99.90
38456;DHT22;24237;50.106;20.014;2023-02-18T17:30:34;9.60;99.90
38456;DHT22;24237;50.106;20.014;2023-02-18T17:33:00;9.70;99.90
38456;DHT22;24237;50.106;20.014;2023-02-18T17:35:27;9.80;99.90
38456;DHT22;24237;50.106;20.014;2023-02-18T17:37:52;9.80;99.90
38456;DHT22;24237;50.106;20.014;2023-02-18T17:40:21;9.80;99.90
38456;DHT22;24237;50.106;20.014;2023-02-18T17:42:47;10.00;99.90
38456;DHT22;24237;50.106;20.014;2023-02-18T17:45:26;10.10;99.90
38456;DHT22;24237;50.106;20.014;2023-02-18T17:47:55;10.30;99.90
38456;DHT22;24237;50.106;20.014;2023-02-18T17:50:24;10.40;99.90
38456;DHT22;24237;50.106;20.014;2023-02-18T17:52:51;10.50;99.90
38456;DHT22;24237;50.106;20.014;2023-02-18T17:55:31;10.70;99.90
38456;DHT22;24237;50.106;20.014;2023-02-18T17:57:57;10.80;99.90